sensor_id;sensor_type;location;lat;lon;timestamp;pressure;altitude;pressure_sealevel;temperature;humidity
73151;BME280;61354;50.758;6.106;2022-07-01T00:00:31;99189.22;;;13.18;88.11
73151;BME280;61354;50.758;6.106;2022-07-01T00:02:57;99174.84;;;13.16;87.59
73151;BME280;61354;50.758;6.106;2022-07-01T00:05:23;99182.78;;;13.14;88.09
73151;BME280;61354;50.758;6.106;2022-07-01T00:07:48;99189.13;;;13.11;88.01
73151;BME280;61354;50.758;6.106;2022-07-01T00:10:14;99195.44;;;13.08;88.24
73151;BME280;61354;50.758;6.106;2022-07-01T00:12:40;99192.59;;;13.05;88.29
73151;BME280;61354;50.758;6.106;2022-07-01T00:15:06;99180.88;;;12.96;88.50
73151;BME280;61354;50.758;6.106;2022-07-01T00:17:31;99182.16;;;13.02;87.98
73151;BME280;61354;50.758;6.106;2022-07-01T00:19:57;99183.19;;;12.90;88.56
73151;BME280;61354;50.758;6.106;2022-07-01T00:22:22;99179.34;;;12.98;87.71
73151;BME280;61354;50.758;6.106;2022-07-01T00:24:48;99180.09;;;12.95;87.71
73151;BME280;61354;50.758;6.106;2022-07-01T00:27:14;99181.56;;;12.89;88.63
73151;BME280;61354;50.758;6.106;2022-07-01T00:29:40;99190.97;;;13.04;87.90
73151;BME280;61354;50.758;6.106;2022-07-01T00:32:06;99204.84;;;13.00;87.90
73151;BME280;61354;50.758;6.106;2022-07-01T00:34:32;99204.84;;;13.00;88.26
73151;BME280;61354;50.758;6.106;2022-07-01T00:36:57;99206.44;;;13.01;88.57
73151;BME280;61354;50.758;6.106;2022-07-01T00:39:24;99209.44;;;12.89;88.85
73151;BME280;61354;50.758;6.106;2022-07-01T00:41:49;99210.34;;;12.97;88.54
73151;BME280;61354;50.758;6.106;2022-07-01T00:44:18;99211.53;;;12.96;88.80
73151;BME280;61354;50.758;6.106;2022-07-01T00:46:45;99224.13;;;12.86;89.08
73151;BME280;61354;50.758;6.106;2022-07-01T00:49:11;99219.44;;;12.90;88.68
73151;BME280;61354;50.758;6.106;2022-07-01T00:51:37;99214.41;;;12.99;88.39
73151;BME280;61354;50.758;6.106;2022-07-01T00:54:02;99212.16;;;13.08;87.90
73151;BME280;61354;50.758;6.106;2022-07-01T00:56:28;99205.66;;;13.01;88.62
73151;BME280;61354;50.758;6.106;2022-07-01T00:58:55;99204.53;;;13.05;88.30
73151;BME280;61354;50.758;6.106;2022-07-01T01:01:21;99213.88;;;12.93;88.45
73151;BME280;61354;50.758;6.106;2022-07-01T01:03:48;99232.19;;;12.91;89.09
73151;BME280;61354;50.758;6.106;2022-07-01T01:06:15;99245.41;;;12.98;89.13
73151;BME280;61354;50.758;6.106;2022-07-01T01:08:41;99249.91;;;13.02;87.79
73151;BME280;61354;50.758;6.106;2022-07-01T01:11:06;99247.34;;;12.93;88.40
73151;BME280;61354;50.758;6.106;2022-07-01T01:13:32;99253.03;;;13.01;88.29
73151;BME280;61354;50.758;6.106;2022-07-01T01:15:58;99259.06;;;13.03;87.85
73151;BME280;61354;50.758;6.106;2022-07-01T01:18:23;99259.00;;;12.99;88.20
73151;BME280;61354;50.758;6.106;2022-07-01T01:20:48;99250.63;;;12.99;87.86
73151;BME280;61354;50.758;6.106;2022-07-01T01:23:14;99251.81;;;12.98;88.08
73151;BME280;61354;50.758;6.106;2022-07-01T01:25:39;99239.81;;;12.94;88.06
73151;BME280;61354;50.758;6.106;2022-07-01T01:28:05;99230.25;;;12.95;87.74
73151;BME280;61354;50.758;6.106;2022-07-01T01:30:31;99220.41;;;12.78;87.61
73151;BME280;61354;50.758;6.106;2022-07-01T01:32:56;99224.41;;;12.81;88.45
73151;BME280;61354;50.758;6.106;2022-07-01T01:35:22;99227.50;;;12.76;88.03
73151;BME280;61354;50.758;6.106;2022-07-01T01:37:48;99226.47;;;12.84;88.21
73151;BME280;61354;50.758;6.106;2022-07-01T01:40:14;99238.09;;;12.89;88.18
73151;BME280;61354;50.758;6.106;2022-07-01T01:42:41;99251.69;;;12.91;88.60
73151;BME280;61354;50.758;6.106;2022-07-01T01:45:06;99256.38;;;12.87;88.09
73151;BME280;61354;50.758;6.106;2022-07-01T01:47:32;99265.16;;;12.89;88.15
73151;BME280;61354;50.758;6.106;2022-07-01T01:49:57;99261.03;;;12.79;87.68
73151;BME280;61354;50.758;6.106;2022-07-01T01:52:23;99257.84;;;12.81;88.04
73151;BME280;61354;50.758;6.106;2022-07-01T01:54:48;99257.13;;;12.84;87.78
73151;BME280;61354;50.758;6.106;2022-07-01T01:57:14;99241.13;;;12.81;87.93
73151;BME280;61354;50.758;6.106;2022-07-01T01:59:40;99244.22;;;12.76;87.48
73151;BME280;61354;50.758;6.106;2022-07-01T02:02:05;99252.28;;;12.81;87.48
73151;BME280;61354;50.758;6.106;2022-07-01T02:04:31;99259.47;;;12.82;87.24
73151;BME280;61354;50.758;6.106;2022-07-01T02:06:57;99265.88;;;12.82;87.70
73151;BME280;61354;50.758;6.106;2022-07-01T02:09:22;99278.53;;;12.80;87.48
73151;BME280;61354;50.758;6.106;2022-07-01T02:11:48;99273.69;;;12.77;87.67
73151;BME280;61354;50.758;6.106;2022-07-01T02:14:13;99263.31;;;12.74;88.16
73151;BME280;61354;50.758;6.106;2022-07-01T02:16:38;99263.31;;;12.74;87.83
73151;BME280;61354;50.758;6.106;2022-07-01T02:19:04;99262.56;;;12.77;87.75
73151;BME280;61354;50.758;6.106;2022-07-01T02:21:29;99276.22;;;12.82;88.41
73151;BME280;61354;50.758;6.106;2022-07-01T02:23:55;99278.22;;;12.85;87.62
73151;BME280;61354;50.758;6.106;2022-07-01T02:26:21;99272.25;;;12.83;87.88
73151;BME280;61354;50.758;6.106;2022-07-01T02:28:46;99280.16;;;12.81;88.03
73151;BME280;61354;50.758;6.106;2022-07-01T02:31:12;99289.31;;;12.81;88.26
73151;BME280;61354;50.758;6.106;2022-07-01T02:33:38;99301.63;;;12.80;87.71
73151;BME280;61354;50.758;6.106;2022-07-01T02:36:03;99298.50;;;12.82;88.42
73151;BME280;61354;50.758;6.106;2022-07-01T02:38:29;99295.25;;;12.80;87.97
73151;BME280;61354;50.758;6.106;2022-07-01T02:40:54;99307.22;;;12.80;88.13
73151;BME280;61354;50.758;6.106;2022-07-01T02:43:20;99311.97;;;12.80;88.40
73151;BME280;61354;50.758;6.106;2022-07-01T02:45:45;99319.47;;;12.76;88.00
73151;BME280;61354;50.758;6.106;2022-07-01T02:48:11;99310.22;;;12.72;87.80
73151;BME280;61354;50.758;6.106;2022-07-01T02:50:37;99321.59;;;12.82;87.70
73151;BME280;61354;50.758;6.106;2022-07-01T02:53:03;99313.16;;;12.79;87.77
73151;BME280;61354;50.758;6.106;2022-07-01T02:55:29;99315.06;;;12.75;88.00
73151;BME280;61354;50.758;6.106;2022-07-01T02:57:55;99307.22;;;12.80;87.70
73151;BME280;61354;50.758;6.106;2022-07-01T03:00:21;99307.28;;;12.84;87.68
73151;BME280;61354;50.758;6.106;2022-07-01T03:02:48;99318.44;;;12.84;87.96
73151;BME280;61354;50.758;6.106;2022-07-01T03:05:13;99310.44;;;12.82;87.70
73151;BME280;61354;50.758;6.106;2022-07-01T03:07:39;99311.69;;;12.85;87.93
73151;BME280;61354;50.758;6.106;2022-07-01T03:10:08;99320.03;;;12.85;87.54
73151;BME280;61354;50.758;6.106;2022-07-01T03:12:34;99314.47;;;12.85;87.84
73151;BME280;61354;50.758;6.106;2022-07-01T03:15:01;99316.81;;;12.83;87.63
73151;BME280;61354;50.758;6.106;2022-07-01T03:17:29;99319.16;;;12.81;88.36
73151;BME280;61354;50.758;6.106;2022-07-01T03:19:56;99326.94;;;12.91;87.58
73151;BME280;61354;50.758;6.106;2022-07-01T03:22:24;99333.53;;;12.83;87.78
73151;BME280;61354;50.758;6.106;2022-07-01T03:24:51;99335.16;;;12.84;87.37
73151;BME280;61354;50.758;6.106;2022-07-01T03:27:18;99346.91;;;12.74;87.98
73151;BME280;61354;50.758;6.106;2022-07-01T03:29:44;99350.91;;;12.76;88.23
73151;BME280;61354;50.758;6.106;2022-07-01T03:32:10;99347.78;;;12.78;87.46
73151;BME280;61354;50.758;6.106;2022-07-01T03:34:37;99338.09;;;12.72;87.77
73151;BME280;61354;50.758;6.106;2022-07-01T03:37:04;99345.66;;;12.71;87.40
73151;BME280;61354;50.758;6.106;2022-07-01T03:39:31;99337.75;;;12.73;87.70
73151;BME280;61354;50.758;6.106;2022-07-01T03:41:57;99342.56;;;12.76;87.39
73151;BME280;61354;50.758;6.106;2022-07-01T03:44:24;99331.72;;;12.71;87.58
73151;BME280;61354;50.758;6.106;2022-07-01T03:46:49;99329.22;;;12.66;87.96
73151;BME280;61354;50.758;6.106;2022-07-01T03:49:15;99322.94;;;12.69;86.90
73151;BME280;61354;50.758;6.106;2022-07-01T03:51:41;99331.72;;;12.71;87.35
73151;BME280;61354;50.758;6.106;2022-07-01T03:54:07;99329.06;;;12.59;87.27
73151;BME280;61354;50.758;6.106;2022-07-01T03:56:52;99328.28;;;12.58;87.90
73151;BME280;61354;50.758;6.106;2022-07-01T03:59:18;99335.31;;;12.52;87.71
73151;BME280;61354;50.758;6.106;2022-07-01T04:01:43;99348.06;;;12.53;87.63
73151;BME280;61354;50.758;6.106;2022-07-01T04:04:08;99349.69;;;12.54;87.75
73151;BME280;61354;50.758;6.106;2022-07-01T04:06:36;99348.06;;;12.53;88.16
73151;BME280;61354;50.758;6.106;2022-07-01T04:09:02;99361.72;;;12.58;87.74
73151;BME280;61354;50.758;6.106;2022-07-01T04:11:28;99360.69;;;12.66;87.64
73151;BME280;61354;50.758;6.106;2022-07-01T04:13:55;99349.75;;;12.58;87.34
73151;BME280;61354;50.758;6.106;2022-07-01T04:16:21;99348.28;;;12.64;87.33
73151;BME280;61354;50.758;6.106;2022-07-01T04:18:49;99343.59;;;12.68;87.70
73151;BME280;61354;50.758;6.106;2022-07-01T04:21:15;99347.47;;;12.63;87.89
73151;BME280;61354;50.758;6.106;2022-07-01T04:23:59;99348.44;;;12.71;87.29
73151;BME280;61354;50.758;6.106;2022-07-01T04:26:25;99351.00;;;12.60;87.27
73151;BME280;61354;50.758;6.106;2022-07-01T04:28:52;99351.38;;;12.59;88.08
73151;BME280;61354;50.758;6.106;2022-07-01T04:31:19;99354.31;;;12.66;88.17
73151;BME280;61354;50.758;6.106;2022-07-01T04:33:45;99344.53;;;12.76;87.77
73151;BME280;61354;50.758;6.106;2022-07-01T04:36:11;99351.00;;;12.80;87.48
73151;BME280;61354;50.758;6.106;2022-07-01T04:38:38;99350.34;;;12.86;86.72
73151;BME280;61354;50.758;6.106;2022-07-01T04:41:04;99336.91;;;12.92;86.80
73151;BME280;61354;50.758;6.106;2022-07-01T04:43:48;99334.19;;;12.76;87.05
73151;BME280;61354;50.758;6.106;2022-07-01T04:46:14;99332.19;;;12.96;86.78
73151;BME280;61354;50.758;6.106;2022-07-01T04:48:39;99328.16;;;12.93;86.79
73151;BME280;61354;50.758;6.106;2022-07-01T04:51:06;99332.41;;;13.07;87.01
73151;BME280;61354;50.758;6.106;2022-07-01T04:53:33;99329.72;;;12.91;86.54
73151;BME280;61354;50.758;6.106;2022-07-01T04:55:58;99330.53;;;12.91;87.00
73151;BME280;61354;50.758;6.106;2022-07-01T04:58:23;99332.41;;;13.07;86.33
73151;BME280;61354;50.758;6.106;2022-07-01T05:00:51;99327.09;;;12.98;86.39
73151;BME280;61354;50.758;6.106;2022-07-01T05:03:18;99317.44;;;13.15;86.28
73151;BME280;61354;50.758;6.106;2022-07-01T05:05:44;99321.75;;;13.12;85.44
73151;BME280;61354;50.758;6.106;2022-07-01T05:08:11;99318.38;;;13.23;85.57
73151;BME280;61354;50.758;6.106;2022-07-01T05:10:37;99329.53;;;13.23;85.58
73151;BME280;61354;50.758;6.106;2022-07-01T05:13:03;99338.41;;;13.28;85.94
73151;BME280;61354;50.758;6.106;2022-07-01T05:15:31;99322.78;;;13.24;86.06
73151;BME280;61354;50.758;6.106;2022-07-01T05:17:57;99325.19;;;13.25;86.00
73151;BME280;61354;50.758;6.106;2022-07-01T05:20:41;99330.78;;;13.25;85.57
73151;BME280;61354;50.758;6.106;2022-07-01T05:23:25;99318.38;;;13.23;85.20
73151;BME280;61354;50.758;6.106;2022-07-01T05:25:53;99323.59;;;13.24;85.28
73151;BME280;61354;50.758;6.106;2022-07-01T05:28:18;99324.63;;;13.16;86.25
73151;BME280;61354;50.758;6.106;2022-07-01T05:30:44;99323.13;;;13.22;85.14
73151;BME280;61354;50.758;6.106;2022-07-01T05:33:11;99331.53;;;13.45;84.76
73151;BME280;61354;50.758;6.106;2022-07-01T05:35:37;99343.03;;;13.43;84.55
73151;BME280;61354;50.758;6.106;2022-07-01T05:38:03;99340.75;;;13.49;85.12
73151;BME280;61354;50.758;6.106;2022-07-01T05:40:28;99342.19;;;13.62;85.03
73151;BME280;61354;50.758;6.106;2022-07-01T05:42:54;99345.91;;;13.47;83.86
73151;BME280;61354;50.758;6.106;2022-07-01T05:45:19;99341.00;;;13.63;83.89
73151;BME280;61354;50.758;6.106;2022-07-01T05:47:46;99338.22;;;13.40;85.04
73151;BME280;61354;50.758;6.106;2022-07-01T05:50:12;99344.75;;;13.48;85.38
73151;BME280;61354;50.758;6.106;2022-07-01T05:52:39;99354.41;;;13.54;84.71
73151;BME280;61354;50.758;6.106;2022-07-01T05:55:04;99369.66;;;13.60;84.75
73151;BME280;61354;50.758;6.106;2022-07-01T05:57:30;99373.94;;;13.54;84.42
73151;BME280;61354;50.758;6.106;2022-07-01T05:59:56;99367.66;;;13.61;84.70
73151;BME280;61354;50.758;6.106;2022-07-01T06:02:22;99361.22;;;13.57;84.78
73151;BME280;61354;50.758;6.106;2022-07-01T06:04:47;99362.22;;;13.45;84.27
73151;BME280;61354;50.758;6.106;2022-07-01T06:07:13;99354.06;;;13.59;84.02
73151;BME280;61354;50.758;6.106;2022-07-01T06:09:39;99359.44;;;13.45;84.50
73151;BME280;61354;50.758;6.106;2022-07-01T06:12:08;99375.47;;;13.52;84.99
73151;BME280;61354;50.758;6.106;2022-07-01T06:14:34;99369.41;;;13.46;84.72
73151;BME280;61354;50.758;6.106;2022-07-01T06:16:59;99372.69;;;13.29;85.82
73151;BME280;61354;50.758;6.106;2022-07-01T06:19:25;99364.88;;;13.38;85.21
73151;BME280;61354;50.758;6.106;2022-07-01T06:21:51;99380.13;;;13.44;85.28
73151;BME280;61354;50.758;6.106;2022-07-01T06:24:17;99368.22;;;13.47;85.76
73151;BME280;61354;50.758;6.106;2022-07-01T06:26:43;99369.84;;;13.48;85.33
73151;BME280;61354;50.758;6.106;2022-07-01T06:29:09;99371.81;;;13.48;85.17
73151;BME280;61354;50.758;6.106;2022-07-01T06:31:34;99379.50;;;13.31;85.77
73151;BME280;61354;50.758;6.106;2022-07-01T06:34:00;99396.00;;;13.40;85.74
73151;BME280;61354;50.758;6.106;2022-07-01T06:36:26;99386.88;;;13.43;85.72
73151;BME280;61354;50.758;6.106;2022-07-01T06:38:52;99377.34;;;13.44;85.84
73151;BME280;61354;50.758;6.106;2022-07-01T06:41:17;99384.72;;;13.33;86.22
73151;BME280;61354;50.758;6.106;2022-07-01T06:43:56;99373.09;;;13.31;85.30
73151;BME280;61354;50.758;6.106;2022-07-01T06:46:21;99367.84;;;13.26;85.58
73151;BME280;61354;50.758;6.106;2022-07-01T06:48:48;99383.66;;;13.41;85.30
73151;BME280;61354;50.758;6.106;2022-07-01T06:51:13;99403.06;;;13.57;85.30
73151;BME280;61354;50.758;6.106;2022-07-01T06:53:40;99397.84;;;13.55;85.26
73151;BME280;61354;50.758;6.106;2022-07-01T06:56:09;99400.34;;;13.60;84.92
73151;BME280;61354;50.758;6.106;2022-07-01T06:58:35;99404.88;;;13.68;84.36
73151;BME280;61354;50.758;6.106;2022-07-01T07:01:01;99405.31;;;13.71;84.10
73151;BME280;61354;50.758;6.106;2022-07-01T07:03:28;99394.88;;;13.67;83.96
73151;BME280;61354;50.758;6.106;2022-07-01T07:05:54;99406.09;;;13.71;83.82
73151;BME280;61354;50.758;6.106;2022-07-01T07:08:19;99405.06;;;13.79;84.21
73151;BME280;61354;50.758;6.106;2022-07-01T07:10:46;99411.81;;;13.78;84.22
73151;BME280;61354;50.758;6.106;2022-07-01T07:13:12;99412.81;;;13.89;84.26
73151;BME280;61354;50.758;6.106;2022-07-01T07:15:37;99400.34;;;13.83;83.17
73151;BME280;61354;50.758;6.106;2022-07-01T07:18:07;99407.38;;;14.00;84.49
73151;BME280;61354;50.758;6.106;2022-07-01T07:20:34;99410.19;;;14.00;82.65
73151;BME280;61354;50.758;6.106;2022-07-01T07:23:00;99411.69;;;13.94;82.53
73151;BME280;61354;50.758;6.106;2022-07-01T07:25:25;99411.38;;;13.99;82.84
73151;BME280;61354;50.758;6.106;2022-07-01T07:27:51;99432.31;;;14.12;83.08
73151;BME280;61354;50.758;6.106;2022-07-01T07:30:17;99432.25;;;14.09;81.69
73151;BME280;61354;50.758;6.106;2022-07-01T07:32:43;99418.88;;;14.22;82.88
73151;BME280;61354;50.758;6.106;2022-07-01T07:35:09;99423.56;;;14.40;81.13
73151;BME280;61354;50.758;6.106;2022-07-01T07:37:35;99429.63;;;14.46;81.10
73151;BME280;61354;50.758;6.106;2022-07-01T07:40:02;99429.72;;;14.50;80.21
73151;BME280;61354;50.758;6.106;2022-07-01T07:42:28;99421.16;;;14.65;80.87
73151;BME280;61354;50.758;6.106;2022-07-01T07:44:54;99404.63;;;14.53;77.91
73151;BME280;61354;50.758;6.106;2022-07-01T07:47:19;99419.63;;;14.72;78.87
73151;BME280;61354;50.758;6.106;2022-07-01T07:49:45;99422.28;;;14.91;78.01
73151;BME280;61354;50.758;6.106;2022-07-01T07:52:11;99424.97;;;15.14;78.00
73151;BME280;61354;50.758;6.106;2022-07-01T07:54:37;99418.31;;;15.26;77.21
73151;BME280;61354;50.758;6.106;2022-07-01T07:57:04;99426.03;;;15.36;76.80
73151;BME280;61354;50.758;6.106;2022-07-01T07:59:31;99428.56;;;15.48;77.13
73151;BME280;61354;50.758;6.106;2022-07-01T08:01:58;99425.44;;;15.57;75.85
73151;BME280;61354;50.758;6.106;2022-07-01T08:04:23;99434.34;;;15.66;76.16
73151;BME280;61354;50.758;6.106;2022-07-01T08:06:49;99437.22;;;15.36;75.08
73151;BME280;61354;50.758;6.106;2022-07-01T08:09:15;99439.44;;;15.20;75.99
73151;BME280;61354;50.758;6.106;2022-07-01T08:11:41;99444.94;;;15.12;76.14
73151;BME280;61354;50.758;6.106;2022-07-01T08:14:07;99444.56;;;15.17;74.87
73151;BME280;61354;50.758;6.106;2022-07-01T08:16:33;99439.44;;;15.20;72.15
73151;BME280;61354;50.758;6.106;2022-07-01T08:19:00;99439.44;;;15.20;74.22
73151;BME280;61354;50.758;6.106;2022-07-01T08:21:28;99438.63;;;15.19;73.20
73151;BME280;61354;50.758;6.106;2022-07-01T08:23:53;99448.81;;;15.38;74.86
73151;BME280;61354;50.758;6.106;2022-07-01T08:26:19;99442.69;;;15.62;73.70
73151;BME280;61354;50.758;6.106;2022-07-01T08:28:45;99439.84;;;15.59;71.42
73151;BME280;61354;50.758;6.106;2022-07-01T08:31:10;99437.31;;;15.80;71.28
73151;BME280;61354;50.758;6.106;2022-07-01T08:33:35;99435.97;;;15.67;69.72
73151;BME280;61354;50.758;6.106;2022-07-01T08:36:04;99435.47;;;15.61;70.60
73151;BME280;61354;50.758;6.106;2022-07-01T08:38:32;99452.41;;;15.38;71.55
73151;BME280;61354;50.758;6.106;2022-07-01T08:40:58;99441.38;;;15.15;70.98
73151;BME280;61354;50.758;6.106;2022-07-01T08:43:23;99456.88;;;15.09;71.92
73151;BME280;61354;50.758;6.106;2022-07-01T08:45:50;99463.25;;;15.06;72.79
73151;BME280;61354;50.758;6.106;2022-07-01T08:48:17;99472.28;;;15.26;72.66
73151;BME280;61354;50.758;6.106;2022-07-01T08:50:43;99473.84;;;15.24;72.44
73151;BME280;61354;50.758;6.106;2022-07-01T08:53:10;99471.56;;;15.33;72.53
73151;BME280;61354;50.758;6.106;2022-07-01T08:55:35;99474.53;;;15.47;69.82
73151;BME280;61354;50.758;6.106;2022-07-01T08:58:22;99475.75;;;15.50;67.54
73151;BME280;61354;50.758;6.106;2022-07-01T09:00:48;99465.34;;;15.50;67.77
73151;BME280;61354;50.758;6.106;2022-07-01T09:03:13;99470.31;;;15.64;67.71
73151;BME280;61354;50.758;6.106;2022-07-01T09:05:51;99462.47;;;15.77;68.60
73151;BME280;61354;50.758;6.106;2022-07-01T09:08:18;99462.47;;;15.77;68.25
73151;BME280;61354;50.758;6.106;2022-07-01T09:10:44;99484.84;;;15.73;66.15
73151;BME280;61354;50.758;6.106;2022-07-01T09:13:12;99480.34;;;16.06;67.02
73151;BME280;61354;50.758;6.106;2022-07-01T09:15:39;99473.28;;;16.23;67.06
73151;BME280;61354;50.758;6.106;2022-07-01T09:18:13;99476.59;;;16.35;67.04
73151;BME280;61354;50.758;6.106;2022-07-01T09:20:40;99488.34;;;16.55;67.35
73151;BME280;61354;50.758;6.106;2022-07-01T09:23:12;99492.53;;;16.28;63.32
73151;BME280;61354;50.758;6.106;2022-07-01T09:25:43;99481.63;;;16.15;63.74
73151;BME280;61354;50.758;6.106;2022-07-01T09:28:11;99499.38;;;16.30;66.24
73151;BME280;61354;50.758;6.106;2022-07-01T09:30:42;99498.00;;;16.10;61.40
73151;BME280;61354;50.758;6.106;2022-07-01T09:33:20;99502.56;;;15.88;63.67
73151;BME280;61354;50.758;6.106;2022-07-01T09:35:47;99522.44;;;15.76;64.87
73151;BME280;61354;50.758;6.106;2022-07-01T09:38:21;99524.06;;;15.77;65.39
73151;BME280;61354;50.758;6.106;2022-07-01T09:40:55;99525.81;;;15.92;66.05
73151;BME280;61354;50.758;6.106;2022-07-01T09:43:24;99519.63;;;15.76;64.55
73151;BME280;61354;50.758;6.106;2022-07-01T09:48:16;99523.28;;;15.80;64.51
73151;BME280;61354;50.758;6.106;2022-07-01T09:50:41;99515.34;;;15.85;65.89
73151;BME280;61354;50.758;6.106;2022-07-01T09:53:07;99513.16;;;16.05;66.76
73151;BME280;61354;50.758;6.106;2022-07-01T09:55:34;99523.09;;;16.44;66.28
73151;BME280;61354;50.758;6.106;2022-07-01T09:57:59;99520.66;;;16.42;65.28
73151;BME280;61354;50.758;6.106;2022-07-01T10:00:26;99517.34;;;16.26;64.80
73151;BME280;61354;50.758;6.106;2022-07-01T10:02:52;99521.88;;;15.97;66.04
73151;BME280;61354;50.758;6.106;2022-07-01T10:05:20;99515.69;;;16.18;66.74
73151;BME280;61354;50.758;6.106;2022-07-01T10:13:23;99529.50;;;16.00;63.93
73151;BME280;61354;50.758;6.106;2022-07-01T10:15:51;99528.63;;;16.36;64.88
73151;BME280;61354;50.758;6.106;2022-07-01T10:18:21;99531.28;;;16.66;63.70
73151;BME280;61354;50.758;6.106;2022-07-01T10:20:47;99530.72;;;16.98;63.69
73151;BME280;61354;50.758;6.106;2022-07-01T10:23:14;99520.72;;;17.01;61.80
73151;BME280;61354;50.758;6.106;2022-07-01T10:30:52;99518.06;;;17.29;62.12
73151;BME280;61354;50.758;6.106;2022-07-01T10:33:39;99517.09;;;16.97;60.54
73151;BME280;61354;50.758;6.106;2022-07-01T10:38:31;99513.03;;;16.90;60.84
73151;BME280;61354;50.758;6.106;2022-07-01T10:41:00;99510.75;;;17.10;62.54
73151;BME280;61354;50.758;6.106;2022-07-01T10:43:36;99515.69;;;17.35;63.46
73151;BME280;61354;50.758;6.106;2022-07-01T10:46:04;99516.38;;;17.10;61.57
73151;BME280;61354;50.758;6.106;2022-07-01T10:48:33;99520.53;;;17.45;62.18
73151;BME280;61354;50.758;6.106;2022-07-01T10:51:00;99512.25;;;17.77;63.13
73151;BME280;61354;50.758;6.106;2022-07-01T10:53:44;99514.25;;;17.91;60.46
73151;BME280;61354;50.758;6.106;2022-07-01T10:56:16;99521.72;;;17.44;57.69
73151;BME280;61354;50.758;6.106;2022-07-01T10:58:42;99508.53;;;17.55;57.06
73151;BME280;61354;50.758;6.106;2022-07-01T11:01:08;99504.78;;;17.23;58.68
73151;BME280;61354;50.758;6.106;2022-07-01T11:03:36;99502.13;;;17.62;59.67
73151;BME280;61354;50.758;6.106;2022-07-01T11:06:04;99502.63;;;17.82;60.13
73151;BME280;61354;50.758;6.106;2022-07-01T11:08:30;99504.53;;;17.60;59.34
73151;BME280;61354;50.758;6.106;2022-07-01T11:10:58;99506.81;;;17.26;59.46
73151;BME280;61354;50.758;6.106;2022-07-01T11:13:26;99512.28;;;16.97;60.28
73151;BME280;61354;50.758;6.106;2022-07-01T11:15:52;99512.78;;;17.13;61.25
73151;BME280;61354;50.758;6.106;2022-07-01T11:18:20;99511.94;;;17.09;61.15
73151;BME280;61354;50.758;6.106;2022-07-01T11:20:46;99513.25;;;17.26;61.38
73151;BME280;61354;50.758;6.106;2022-07-01T11:23:11;99498.13;;;17.59;62.24
73151;BME280;61354;50.758;6.106;2022-07-01T11:25:37;99502.63;;;17.89;63.58
73151;BME280;61354;50.758;6.106;2022-07-01T11:28:03;99501.75;;;17.71;59.82
73151;BME280;61354;50.758;6.106;2022-07-01T11:30:29;99505.44;;;17.85;60.97
73151;BME280;61354;50.758;6.106;2022-07-01T11:32:56;99506.28;;;18.00;58.11
73151;BME280;61354;50.758;6.106;2022-07-01T11:35:32;99514.69;;;17.97;58.88
73151;BME280;61354;50.758;6.106;2022-07-01T11:38:22;99506.25;;;17.93;59.40
73151;BME280;61354;50.758;6.106;2022-07-01T11:41:09;99514.28;;;17.98;59.56
73151;BME280;61354;50.758;6.106;2022-07-01T11:43:37;99506.94;;;17.61;57.10
73151;BME280;61354;50.758;6.106;2022-07-01T11:46:05;99498.53;;;17.69;58.97
73151;BME280;61354;50.758;6.106;2022-07-01T11:48:33;99513.50;;;18.16;59.56
73151;BME280;61354;50.758;6.106;2022-07-01T11:51:00;99508.72;;;18.34;58.50
73151;BME280;61354;50.758;6.106;2022-07-01T11:53:28;99513.13;;;18.46;57.76
73151;BME280;61354;50.758;6.106;2022-07-01T11:55:54;99507.50;;;18.35;55.24
73151;BME280;61354;50.758;6.106;2022-07-01T11:58:19;99500.66;;;18.36;56.96
73151;BME280;61354;50.758;6.106;2022-07-01T12:00:47;99511.50;;;18.52;59.10
73151;BME280;61354;50.758;6.106;2022-07-01T12:03:12;99508.31;;;18.71;58.13
73151;BME280;61354;50.758;6.106;2022-07-01T12:05:38;99517.53;;;18.82;55.91
73151;BME280;61354;50.758;6.106;2022-07-01T12:08:04;99503.88;;;18.34;54.36
73151;BME280;61354;50.758;6.106;2022-07-01T12:10:30;99499.06;;;18.42;54.99
73151;BME280;61354;50.758;6.106;2022-07-01T12:12:59;99513.91;;;18.60;53.61
73151;BME280;61354;50.758;6.106;2022-07-01T12:15:24;99507.50;;;18.60;54.34
73151;BME280;61354;50.758;6.106;2022-07-01T12:17:50;99509.09;;;18.57;52.92
73151;BME280;61354;50.758;6.106;2022-07-01T12:20:15;99509.50;;;18.67;53.66
73151;BME280;61354;50.758;6.106;2022-07-01T12:23:11;99504.66;;;18.49;50.99
73151;BME280;61354;50.758;6.106;2022-07-01T12:25:37;99514.31;;;18.84;52.26
73151;BME280;61354;50.758;6.106;2022-07-01T12:28:03;99498.97;;;19.17;52.79
73151;BME280;61354;50.758;6.106;2022-07-01T12:30:29;99507.00;;;19.15;51.00
73151;BME280;61354;50.758;6.106;2022-07-01T12:33:07;99498.63;;;18.97;50.83
73151;BME280;61354;50.758;6.106;2022-07-01T12:35:33;99494.84;;;19.36;51.33
73151;BME280;61354;50.758;6.106;2022-07-01T12:37:59;99498.97;;;19.10;51.22
73151;BME280;61354;50.758;6.106;2022-07-01T12:40:26;99497.72;;;19.29;52.06
73151;BME280;61354;50.758;6.106;2022-07-01T12:42:55;99504.94;;;19.30;50.48
73151;BME280;61354;50.758;6.106;2022-07-01T12:45:25;99497.97;;;19.59;49.20
73151;BME280;61354;50.758;6.106;2022-07-01T12:47:56;99502.34;;;19.78;52.38
73151;BME280;61354;50.758;6.106;2022-07-01T12:50:27;99506.81;;;19.69;51.60
73151;BME280;61354;50.758;6.106;2022-07-01T12:52:57;99489.06;;;19.79;50.29
73151;BME280;61354;50.758;6.106;2022-07-01T12:55:25;99493.84;;;19.82;51.34
73151;BME280;61354;50.758;6.106;2022-07-01T12:57:54;99499.47;;;19.82;51.58
73151;BME280;61354;50.758;6.106;2022-07-01T13:00:22;99495.00;;;19.00;52.28
73151;BME280;61354;50.758;6.106;2022-07-01T13:02:52;99503.88;;;18.70;52.65
73151;BME280;61354;50.758;6.106;2022-07-01T13:05:18;99512.31;;;18.52;54.00
73151;BME280;61354;50.758;6.106;2022-07-01T13:07:44;99512.31;;;18.49;53.65
73151;BME280;61354;50.758;6.106;2022-07-01T13:10:10;99515.13;;;18.31;54.18
73151;BME280;61354;50.758;6.106;2022-07-01T13:12:36;99511.94;;;18.29;55.17
73151;BME280;61354;50.758;6.106;2022-07-01T13:15:02;99523.97;;;18.36;54.84